createdAt,value
2023-06-24T00:00:17.431Z,3.15
2023-06-24T00:03:09.065Z,2.70
2023-06-24T00:05:57.967Z,2.88
2023-06-24T00:08:43.159Z,3.00
2023-06-24T00:11:31.813Z,3.08
2023-06-24T00:14:17.425Z,2.90
2023-06-24T00:17:02.677Z,3.17
2023-06-24T00:19:48.094Z,2.70
2023-06-24T00:22:33.539Z,3.58
2023-06-24T00:25:19.518Z,2.92
2023-06-24T00:28:04.772Z,2.70
2023-06-24T00:30:50.650Z,2.97
2023-06-24T00:33:37.088Z,3.10
2023-06-24T00:36:22.523Z,2.90
2023-06-24T00:39:08.383Z,3.00
2023-06-24T00:41:54.244Z,2.58
2023-06-24T00:44:40.605Z,2.92
2023-06-24T00:47:26.784Z,2.72
2023-06-24T00:50:15.259Z,3.00
2023-06-24T00:53:00.526Z,3.03
2023-06-24T00:55:48.971Z,3.13
2023-06-24T00:58:36.178Z,2.67
2023-06-24T01:01:21.646Z,2.92
2023-06-24T01:04:08.694Z,3.08
2023-06-24T01:06:54.078Z,2.80
2023-06-24T01:09:39.374Z,2.70
2023-06-24T01:12:24.864Z,2.72
2023-06-24T01:15:11.240Z,2.78
2023-06-24T01:18:06.532Z,2.92
2023-06-24T01:21:02.358Z,2.40
2023-06-24T01:24:15.000Z,2.70
2023-06-24T01:27:30.041Z,2.50
2023-06-24T01:30:18.430Z,2.90
2023-06-24T01:33:09.753Z,2.35
2023-06-24T01:35:56.065Z,2.58
2023-06-24T01:38:48.022Z,2.33
2023-06-24T01:41:39.229Z,2.58
2023-06-24T01:44:26.699Z,2.60
2023-06-24T01:47:16.456Z,2.67
2023-06-24T01:50:03.980Z,2.35
2023-06-24T01:52:51.871Z,2.28
2023-06-24T01:55:39.374Z,2.55
2023-06-24T01:58:25.227Z,2.58
2023-06-24T02:01:11.847Z,2.80
2023-06-24T02:03:59.772Z,2.50
2023-06-24T02:06:47.397Z,2.42
2023-06-24T02:09:34.313Z,2.53
2023-06-24T02:12:20.930Z,2.55
2023-06-24T02:15:08.660Z,2.70
2023-06-24T02:17:57.602Z,2.33
2023-06-24T02:20:45.097Z,2.45
2023-06-24T02:23:31.064Z,2.50
2023-06-24T02:26:17.986Z,2.30
2023-06-24T02:29:04.725Z,2.45
2023-06-24T02:31:50.475Z,1.75
2023-06-24T02:34:36.252Z,2.28
2023-06-24T02:37:21.767Z,2.03
2023-06-24T02:40:09.225Z,1.92
2023-06-24T02:42:54.148Z,1.85
2023-06-24T02:45:40.204Z,1.80
2023-06-24T02:48:26.392Z,2.03
2023-06-24T02:51:12.332Z,2.10
2023-06-24T02:53:59.368Z,1.90
2023-06-24T02:57:04.293Z,2.22
2023-06-24T03:00:15.693Z,1.83
2023-06-24T03:03:21.584Z,1.97
2023-06-24T03:06:13.411Z,1.90
2023-06-24T03:09:00.618Z,1.85
2023-06-24T03:11:46.072Z,1.85
2023-06-24T03:14:39.296Z,1.85
2023-06-24T03:17:25.659Z,2.10
2023-06-24T03:20:11.665Z,2.13
2023-06-24T03:22:57.240Z,2.10
2023-06-24T03:25:43.093Z,1.88
2023-06-24T03:28:28.512Z,1.98
2023-06-24T03:31:24.627Z,1.58
2023-06-24T03:34:09.894Z,1.92
2023-06-24T03:36:55.555Z,1.70
2023-06-24T03:39:41.076Z,1.80
2023-06-24T03:42:26.534Z,1.80
2023-06-24T03:45:12.081Z,1.60
2023-06-24T03:47:57.874Z,2.00
2023-06-24T03:50:43.374Z,1.80
2023-06-24T03:53:28.691Z,1.83
2023-06-24T03:56:14.439Z,1.90
2023-06-24T03:58:59.847Z,1.92
2023-06-24T04:01:45.238Z,1.92
2023-06-24T04:04:30.590Z,1.70
2023-06-24T04:07:16.041Z,1.88
2023-06-24T04:10:01.450Z,1.60
2023-06-24T04:12:47.300Z,1.88
2023-06-24T04:15:33.334Z,1.88
2023-06-24T04:18:20.540Z,1.60
2023-06-24T04:21:07.689Z,2.00
2023-06-24T04:23:53.280Z,1.70
2023-06-24T04:26:39.246Z,1.77
2023-06-24T04:29:24.709Z,1.80
2023-06-24T04:32:10.124Z,1.75
2023-06-24T04:34:55.676Z,1.67
2023-06-24T04:37:42.040Z,1.75
2023-06-24T04:40:27.269Z,1.85
2023-06-24T04:43:12.600Z,1.52
2023-06-24T04:45:58.273Z,1.85
2023-06-24T04:48:43.870Z,1.73
2023-06-24T04:51:29.111Z,1.90
2023-06-24T04:54:14.534Z,1.98
2023-06-24T04:57:00.516Z,1.83
2023-06-24T04:59:45.991Z,1.75
2023-06-24T05:02:31.372Z,1.70
2023-06-24T05:05:17.170Z,1.73
2023-06-24T05:08:02.761Z,1.70
2023-06-24T05:10:48.073Z,1.92
2023-06-24T05:13:33.623Z,1.60
2023-06-24T05:16:19.086Z,1.90
2023-06-24T05:19:04.432Z,1.73
2023-06-24T05:21:50.106Z,1.67
2023-06-24T05:24:35.523Z,1.70
2023-06-24T05:27:21.040Z,1.80
2023-06-24T05:30:06.959Z,1.73
2023-06-24T05:32:52.652Z,1.80
2023-06-24T05:35:41.010Z,1.67
2023-06-24T05:38:26.734Z,1.70
2023-06-24T05:41:12.102Z,1.50
2023-06-24T05:44:05.252Z,1.92
2023-06-24T05:46:51.237Z,1.70
2023-06-24T05:49:36.326Z,1.80
2023-06-24T05:52:21.715Z,1.70
2023-06-24T05:55:07.558Z,1.80
2023-06-24T05:57:53.128Z,1.70
2023-06-24T06:00:38.650Z,1.90
2023-06-24T06:03:23.934Z,1.70
2023-06-24T06:06:09.439Z,1.73
2023-06-24T06:08:54.800Z,1.75
2023-06-24T06:11:40.108Z,1.70
2023-06-24T06:14:25.532Z,1.70
2023-06-24T06:17:11.040Z,1.58
2023-06-24T06:19:56.433Z,1.85
2023-06-24T06:22:41.783Z,1.50
2023-06-24T06:25:27.157Z,1.70
2023-06-24T06:28:12.497Z,1.75
2023-06-24T06:30:58.183Z,1.80
2023-06-24T06:33:44.676Z,1.50
2023-06-24T06:36:29.809Z,1.80
2023-06-24T06:39:15.290Z,1.65
2023-06-24T06:42:00.792Z,1.60
2023-06-24T06:44:46.595Z,1.65
2023-06-24T06:47:32.119Z,1.73
2023-06-24T06:50:17.568Z,1.48
2023-06-24T06:53:03.241Z,1.85
2023-06-24T06:55:48.575Z,1.60
2023-06-24T06:58:34.106Z,1.42
2023-06-24T07:01:20.103Z,1.77
2023-06-24T07:04:05.477Z,1.70
2023-06-24T07:06:51.142Z,1.70
2023-06-24T07:09:36.810Z,1.90
2023-06-24T07:12:24.479Z,1.70
2023-06-24T07:15:13.175Z,2.03
2023-06-24T07:17:59.002Z,1.70
2023-06-24T07:20:44.411Z,1.60
2023-06-24T07:23:30.060Z,1.90
2023-06-24T07:26:15.181Z,1.88
2023-06-24T07:29:07.972Z,1.90
2023-06-24T07:31:55.101Z,1.70
2023-06-24T07:34:40.571Z,1.67
2023-06-24T07:37:26.068Z,1.70
2023-06-24T07:40:12.033Z,1.60
2023-06-24T07:42:57.273Z,1.60
2023-06-24T07:45:42.656Z,1.70
2023-06-24T07:48:27.984Z,1.80
2023-06-24T07:51:13.310Z,1.73
2023-06-24T07:53:58.868Z,1.65
2023-06-24T07:56:44.386Z,1.90
2023-06-24T07:59:29.888Z,2.05
2023-06-24T08:02:15.324Z,1.92
2023-06-24T08:05:00.715Z,1.70
2023-06-24T08:07:46.018Z,1.92
2023-06-24T08:10:31.587Z,1.83
2023-06-24T08:13:16.900Z,2.10
2023-06-24T08:16:02.413Z,1.63
2023-06-24T08:18:47.959Z,2.00
2023-06-24T08:21:34.878Z,2.00
2023-06-24T08:24:20.006Z,1.75
2023-06-24T08:27:05.528Z,2.08
2023-06-24T08:29:51.063Z,1.90
2023-06-24T08:32:36.430Z,2.38
2023-06-24T08:35:21.769Z,1.90
2023-06-24T08:38:07.196Z,1.90
2023-06-24T08:40:54.272Z,2.15
2023-06-24T08:43:41.006Z,1.88
2023-06-24T08:46:26.920Z,2.13
2023-06-24T08:49:27.578Z,2.05
2023-06-24T08:52:16.891Z,1.83
2023-06-24T08:55:03.289Z,2.00
2023-06-24T08:57:48.382Z,1.83
2023-06-24T09:00:33.909Z,2.42
2023-06-24T09:03:19.327Z,2.00
2023-06-24T09:06:04.873Z,2.17
2023-06-24T09:08:57.246Z,1.95
2023-06-24T09:11:42.526Z,2.15
2023-06-24T09:14:31.929Z,1.83
2023-06-24T09:17:17.842Z,2.17
2023-06-24T09:20:07.056Z,2.13
2023-06-24T09:22:52.135Z,2.10
2023-06-24T09:25:38.176Z,2.20
2023-06-24T09:28:28.024Z,2.50
2023-06-24T09:34:01.865Z,2.50
2023-06-24T09:36:53.039Z,2.20
2023-06-24T09:39:40.714Z,2.40
2023-06-24T09:42:26.905Z,2.85
2023-06-24T09:45:13.027Z,2.13
2023-06-24T09:47:59.162Z,2.67
2023-06-24T09:50:44.533Z,2.40
2023-06-24T09:53:34.739Z,2.40
2023-06-24T09:56:20.617Z,2.35
2023-06-24T09:59:06.651Z,2.60
2023-06-24T10:01:55.706Z,2.45
2023-06-24T10:04:42.076Z,2.28
2023-06-24T10:07:28.409Z,2.60
2023-06-24T10:10:13.922Z,2.55
2023-06-24T10:12:59.289Z,2.17
2023-06-24T10:15:44.721Z,2.13
2023-06-24T10:18:38.597Z,2.70
2023-06-24T10:21:43.831Z,3.13
2023-06-24T10:24:37.089Z,2.40
2023-06-24T10:27:23.311Z,2.80
2023-06-24T10:30:09.255Z,2.30
2023-06-24T10:32:55.648Z,2.35
2023-06-24T10:35:44.835Z,2.60
2023-06-24T10:38:30.111Z,2.28
2023-06-24T10:41:19.706Z,2.30
2023-06-24T10:44:16.678Z,2.35
2023-06-24T10:47:02.253Z,2.15
2023-06-24T10:49:47.566Z,2.30
2023-06-24T10:52:33.736Z,2.33
2023-06-24T10:55:20.049Z,2.53
2023-06-24T10:58:12.396Z,2.60
2023-06-24T11:01:08.728Z,2.47
2023-06-24T11:03:54.139Z,2.90
2023-06-24T11:06:39.416Z,2.70
2023-06-24T11:09:24.781Z,2.55
2023-06-24T11:12:11.587Z,2.42
2023-06-24T11:15:01.323Z,2.40
2023-06-24T11:17:46.634Z,2.50
2023-06-24T11:20:31.934Z,2.53
2023-06-24T11:23:17.342Z,2.72
2023-06-24T11:26:04.193Z,2.33
2023-06-24T11:28:50.477Z,2.38
2023-06-24T11:31:36.695Z,2.40
2023-06-24T11:34:22.682Z,2.42
2023-06-24T11:37:15.720Z,2.38
2023-06-24T11:40:06.347Z,2.30
2023-06-24T11:42:51.858Z,2.08
2023-06-24T11:45:37.361Z,2.13
2023-06-24T11:48:22.861Z,2.20
2023-06-24T11:51:15.157Z,2.40
2023-06-24T11:54:04.877Z,2.05
2023-06-24T11:56:53.968Z,2.55
2023-06-24T11:59:39.360Z,2.22
2023-06-24T12:02:24.743Z,2.75
2023-06-24T12:05:10.436Z,2.30
2023-06-24T12:07:59.872Z,2.42
2023-06-24T12:10:46.016Z,2.60
2023-06-24T12:13:31.300Z,2.38
2023-06-24T12:16:16.721Z,3.08
2023-06-24T12:19:02.182Z,2.60
2023-06-24T12:21:47.486Z,2.67
2023-06-24T12:24:33.104Z,2.58
2023-06-24T12:27:18.270Z,2.92
2023-06-24T12:30:03.894Z,2.75
2023-06-24T12:32:52.208Z,2.53
2023-06-24T12:35:37.782Z,2.45
2023-06-24T12:38:23.185Z,2.60
2023-06-24T12:41:08.539Z,2.88
2023-06-24T12:43:53.826Z,2.83
2023-06-24T12:46:39.160Z,2.88
2023-06-24T12:49:24.559Z,2.90
2023-06-24T12:52:10.064Z,3.08
2023-06-24T12:54:55.388Z,2.60
2023-06-24T12:57:40.691Z,2.78
2023-06-24T13:00:26.388Z,2.90
2023-06-24T13:03:11.501Z,2.67
2023-06-24T13:05:56.795Z,3.10
2023-06-24T13:08:42.635Z,2.50
2023-06-24T13:11:27.684Z,2.60
2023-06-24T13:14:14.185Z,2.92
2023-06-24T13:17:00.082Z,2.95
2023-06-24T13:19:45.431Z,2.72
2023-06-24T13:22:31.669Z,3.20
2023-06-24T13:25:17.033Z,3.08
2023-06-24T13:28:02.683Z,3.05
2023-06-24T13:30:47.982Z,3.10
2023-06-24T13:33:33.369Z,2.60
2023-06-24T13:36:33.182Z,2.95
2023-06-24T13:39:19.274Z,2.83
2023-06-24T13:42:05.106Z,2.65
2023-06-24T13:44:50.514Z,2.70
2023-06-24T13:47:36.617Z,2.80
2023-06-24T13:50:22.096Z,2.67
2023-06-24T13:53:07.748Z,2.85
2023-06-24T13:55:55.679Z,2.88
2023-06-24T13:58:41.538Z,2.35
2023-06-24T14:01:29.356Z,3.00
2023-06-24T14:04:14.721Z,2.90
2023-06-24T14:07:00.176Z,2.80
2023-06-24T14:09:45.502Z,2.90
2023-06-24T14:12:31.201Z,3.38
2023-06-24T14:15:16.589Z,2.90
2023-06-24T14:18:01.943Z,3.47
2023-06-24T14:20:47.559Z,3.15
2023-06-24T14:23:33.968Z,3.17
2023-06-24T14:26:19.502Z,2.50
2023-06-24T14:29:05.721Z,3.15
2023-06-24T14:31:50.892Z,2.95
2023-06-24T14:34:36.194Z,3.20
2023-06-24T14:37:21.567Z,3.03
2023-06-24T14:40:07.804Z,3.00
2023-06-24T14:42:53.315Z,2.92
2023-06-24T14:45:38.833Z,3.35
2023-06-24T14:48:24.168Z,3.08
2023-06-24T14:51:09.604Z,3.25
2023-06-24T14:53:55.042Z,3.15
2023-06-24T14:56:40.294Z,3.00
2023-06-24T14:59:25.774Z,2.97
2023-06-24T15:02:11.018Z,2.70
2023-06-24T15:04:56.427Z,3.40
2023-06-24T15:07:41.867Z,2.97
2023-06-24T15:10:27.129Z,4.05
2023-06-24T15:13:12.584Z,3.70
2023-06-24T15:15:57.895Z,3.30
2023-06-24T15:18:48.134Z,3.30
2023-06-24T15:21:37.329Z,3.38
2023-06-24T15:24:23.194Z,3.10
2023-06-24T15:27:08.523Z,3.28
2023-06-24T15:29:54.192Z,4.18
2023-06-24T15:32:39.497Z,3.55
2023-06-24T15:35:24.820Z,3.40
2023-06-24T15:38:10.375Z,3.13
2023-06-24T15:40:55.710Z,3.38
2023-06-24T15:43:41.574Z,3.38
2023-06-24T15:46:26.754Z,3.35
2023-06-24T15:49:12.166Z,3.42
2023-06-24T15:51:57.720Z,3.40
2023-06-24T15:54:42.993Z,3.58
2023-06-24T15:57:28.431Z,3.25
2023-06-24T16:00:14.425Z,3.20
2023-06-24T16:02:59.876Z,3.33
2023-06-24T16:05:45.481Z,3.10
2023-06-24T16:08:30.787Z,3.10
2023-06-24T16:11:16.360Z,3.90
2023-06-24T16:14:01.795Z,3.53
2023-06-24T16:16:48.097Z,3.35
2023-06-24T16:19:33.260Z,3.50
2023-06-24T16:22:18.668Z,3.60
2023-06-24T16:25:04.428Z,3.72
2023-06-24T16:27:50.239Z,3.00
2023-06-24T16:30:35.780Z,3.00
2023-06-24T16:33:21.095Z,3.20
2023-06-24T16:36:06.454Z,3.40
2023-06-24T16:38:51.890Z,3.35
2023-06-24T16:41:37.232Z,3.28
2023-06-24T16:44:22.830Z,2.92
2023-06-24T16:47:08.114Z,3.03
2023-06-24T16:49:54.946Z,3.22
2023-06-24T16:52:40.739Z,3.20
2023-06-24T16:55:26.269Z,3.42
2023-06-24T16:58:11.363Z,3.47
2023-06-24T17:00:56.761Z,3.90
2023-06-24T17:03:43.732Z,3.67
2023-06-24T17:06:29.338Z,2.70
2023-06-24T17:09:14.687Z,3.20
2023-06-24T17:12:00.108Z,3.20
2023-06-24T17:14:45.439Z,3.53
2023-06-24T17:17:30.775Z,3.67
2023-06-24T17:20:16.787Z,3.60
2023-06-24T17:23:02.245Z,3.60
2023-06-24T17:25:49.352Z,3.63
2023-06-24T17:28:35.362Z,3.75
2023-06-24T17:31:20.688Z,3.40
2023-06-24T17:34:06.131Z,3.70
2023-06-24T17:36:51.477Z,4.00
2023-06-24T17:39:36.817Z,3.30
2023-06-24T17:42:22.923Z,3.45
2023-06-24T17:45:08.543Z,3.55
2023-06-24T17:47:54.084Z,3.83
2023-06-24T17:50:39.818Z,3.80
2023-06-24T17:53:25.237Z,3.95
2023-06-24T17:56:10.653Z,4.22
2023-06-24T17:58:55.835Z,3.80
2023-06-24T18:01:41.340Z,4.60
2023-06-24T18:04:26.600Z,5.72
2023-06-24T18:07:12.221Z,4.35
2023-06-24T18:09:57.850Z,3.45
2023-06-24T18:12:43.795Z,3.20
2023-06-24T18:15:29.212Z,3.45
2023-06-24T18:18:14.583Z,3.03
2023-06-24T18:20:59.983Z,2.85
2023-06-24T18:23:45.924Z,3.40
2023-06-24T18:26:31.433Z,3.10
2023-06-24T18:29:16.746Z,2.92
2023-06-24T18:32:02.708Z,3.47
2023-06-24T18:34:48.602Z,3.28
2023-06-24T18:37:34.209Z,3.00
2023-06-24T18:40:19.608Z,2.90
2023-06-24T18:43:05.720Z,3.78
2023-06-24T18:45:51.102Z,3.55
2023-06-24T18:48:38.410Z,3.25
2023-06-24T18:51:23.577Z,4.03
2023-06-24T18:54:08.922Z,3.28
2023-06-24T18:56:54.507Z,3.42
2023-06-24T18:59:39.698Z,3.63
2023-06-24T19:02:25.126Z,3.60
2023-06-24T19:05:10.683Z,3.58
2023-06-24T19:07:56.063Z,3.22
2023-06-24T19:10:41.310Z,2.80
2023-06-24T19:13:26.510Z,3.28
2023-06-24T19:16:12.043Z,2.90
2023-06-24T19:18:57.431Z,2.70
2023-06-24T19:21:42.716Z,3.10
2023-06-24T19:24:27.984Z,3.03
2023-06-24T19:27:13.275Z,3.08
2023-06-24T19:29:58.581Z,2.97
2023-06-24T19:32:51.127Z,3.50
2023-06-24T19:35:36.317Z,3.90
2023-06-24T19:38:23.220Z,3.70
2023-06-24T19:41:08.857Z,3.85
2023-06-24T19:44:05.180Z,4.13
2023-06-24T19:46:50.786Z,3.42
2023-06-24T19:49:49.085Z,4.30
2023-06-24T19:52:34.779Z,3.60
2023-06-24T19:55:20.540Z,4.30
2023-06-24T19:58:06.345Z,3.30
2023-06-24T20:00:51.783Z,3.13
2023-06-24T20:03:37.233Z,3.35
2023-06-24T20:06:22.857Z,3.00
2023-06-24T20:09:08.256Z,3.35
2023-06-24T20:11:53.784Z,3.70
2023-06-24T20:14:39.178Z,3.20
2023-06-24T20:17:24.522Z,3.67
2023-06-24T20:20:10.256Z,3.33
2023-06-24T20:22:55.297Z,3.45
2023-06-24T20:25:40.849Z,3.88
2023-06-24T20:28:26.187Z,4.07
2023-06-24T20:31:11.864Z,2.97
2023-06-24T20:33:57.221Z,3.13
2023-06-24T20:36:43.303Z,2.88
2023-06-24T20:39:29.494Z,2.80
2023-06-24T20:42:14.706Z,3.42
2023-06-24T20:45:01.053Z,3.25
2023-06-24T20:47:46.663Z,3.53
2023-06-24T20:50:31.858Z,3.58
2023-06-24T20:53:18.358Z,3.95
2023-06-24T20:56:03.935Z,3.90
2023-06-24T20:58:49.418Z,3.83
2023-06-24T21:01:35.004Z,4.05
2023-06-24T21:04:20.290Z,3.83
2023-06-24T21:07:06.907Z,3.90
2023-06-24T21:09:52.260Z,4.22
2023-06-24T21:12:46.162Z,4.50
2023-06-24T21:15:42.585Z,4.03
2023-06-24T21:18:27.876Z,4.00
2023-06-24T21:21:13.438Z,3.30
2023-06-24T21:23:58.533Z,3.50
2023-06-24T21:26:43.862Z,4.07
2023-06-24T21:29:29.359Z,4.20
2023-06-24T21:32:14.850Z,4.13
2023-06-24T21:35:00.463Z,4.30
2023-06-24T21:37:45.690Z,3.80
2023-06-24T21:40:31.109Z,4.53
2023-06-24T21:43:16.628Z,5.10
2023-06-24T21:46:01.851Z,5.53
2023-06-24T21:48:47.212Z,4.20
2023-06-24T21:51:33.294Z,5.10
2023-06-24T21:54:18.656Z,4.55
2023-06-24T21:57:04.799Z,6.00
2023-06-24T21:59:50.009Z,4.40
2023-06-24T22:02:35.538Z,4.30
2023-06-24T22:05:34.034Z,4.40
2023-06-24T22:08:23.601Z,5.18
2023-06-24T22:11:09.389Z,5.40
2023-06-24T22:13:54.817Z,5.28
2023-06-24T22:16:42.739Z,5.70
2023-06-24T22:19:28.231Z,4.20
2023-06-24T22:22:13.537Z,5.57
2023-06-24T22:24:58.904Z,6.00
2023-06-24T22:27:44.299Z,5.45
2023-06-24T22:30:29.677Z,5.60
2023-06-24T22:33:15.300Z,5.88
2023-06-24T22:36:00.666Z,5.72
2023-06-24T22:38:46.209Z,5.90
2023-06-24T22:41:31.462Z,6.45
2023-06-24T22:44:16.899Z,5.72
2023-06-24T22:47:02.348Z,5.13
2023-06-24T22:49:47.788Z,6.60
2023-06-24T22:52:33.190Z,6.28
2023-06-24T22:55:18.545Z,6.53
2023-06-24T22:58:04.053Z,6.60
2023-06-24T23:00:49.498Z,5.68
2023-06-24T23:03:35.516Z,6.22
2023-06-24T23:06:21.163Z,5.80
2023-06-24T23:09:06.723Z,6.38
2023-06-24T23:11:54.320Z,6.70
2023-06-24T23:14:41.108Z,6.47
2023-06-24T23:17:29.577Z,7.07
2023-06-24T23:20:15.266Z,5.65
2023-06-24T23:23:00.823Z,7.88
2023-06-24T23:25:52.579Z,6.88
2023-06-24T23:28:39.030Z,6.97
2023-06-24T23:31:25.291Z,7.07
2023-06-24T23:34:11.417Z,5.95
2023-06-24T23:36:57.122Z,6.97
2023-06-24T23:39:43.861Z,6.10
2023-06-24T23:42:31.564Z,5.90
2023-06-24T23:45:17.327Z,7.65
2023-06-24T23:48:03.037Z,6.47
2023-06-24T23:50:48.480Z,7.47
2023-06-24T23:53:33.725Z,5.30
2023-06-24T23:56:19.166Z,6.32
2023-06-24T23:59:04.639Z,7.82
